createdAt,value
2023-05-15T00:01:10.132Z,99821.09
2023-05-15T00:03:57.817Z,99820.09
2023-05-15T00:06:46.943Z,99821.50
2023-05-15T00:09:34.707Z,99823.47
2023-05-15T00:12:22.438Z,99812.22
2023-05-15T00:15:10.443Z,99816.44
2023-05-15T00:17:58.145Z,99828.97
2023-05-15T00:20:45.951Z,99817.25
2023-05-15T00:23:35.062Z,99810.53
2023-05-15T00:26:24.517Z,99809.25
2023-05-15T00:29:12.216Z,99805.59
2023-05-15T00:32:00.000Z,99794.53
2023-05-15T00:34:47.883Z,99792.31
2023-05-15T00:37:35.634Z,99792.44
2023-05-15T00:40:25.483Z,99778.63
2023-05-15T00:43:13.436Z,99784.56
2023-05-15T00:46:02.033Z,99786.25
2023-05-15T00:48:51.113Z,99776.50
2023-05-15T00:51:38.908Z,99769.88
2023-05-15T00:54:26.762Z,99784.00
2023-05-15T00:57:16.923Z,99782.72
2023-05-15T01:00:07.216Z,99785.91
2023-05-15T01:02:55.179Z,99783.38
2023-05-15T01:05:43.110Z,99793.06
2023-05-15T01:08:35.631Z,99793.63
2023-05-15T01:11:25.792Z,99786.44
2023-05-15T01:14:14.931Z,99779.41
2023-05-15T01:17:02.867Z,99773.41
2023-05-15T01:19:52.520Z,99770.75
2023-05-15T01:22:45.890Z,99766.88
2023-05-15T01:25:54.072Z,99750.38
2023-05-15T01:28:47.125Z,99754.59
2023-05-15T01:31:36.394Z,99740.94
2023-05-15T01:34:24.993Z,99734.97
2023-05-15T01:37:15.597Z,99734.56
2023-05-15T01:40:05.868Z,99726.00
2023-05-15T01:42:56.171Z,99728.63
2023-05-15T01:45:46.146Z,99716.69
2023-05-15T01:48:36.114Z,99713.31
2023-05-15T01:51:25.096Z,99715.56
2023-05-15T01:54:14.626Z,99724.84
2023-05-15T01:57:02.797Z,99727.94
2023-05-15T01:59:51.434Z,99739.31
2023-05-15T02:02:40.975Z,99730.91
2023-05-15T02:05:29.623Z,99732.31
2023-05-15T02:08:17.712Z,99733.97
2023-05-15T02:11:05.891Z,99717.25
2023-05-15T02:13:54.155Z,99706.41
2023-05-15T02:16:42.011Z,99686.31
2023-05-15T02:19:31.238Z,99700.13
2023-05-15T02:22:18.928Z,99707.13
2023-05-15T02:25:07.057Z,99708.78
2023-05-15T02:27:58.622Z,99694.28
2023-05-15T02:30:50.435Z,99700.66
2023-05-15T02:33:43.474Z,99702.03
2023-05-15T02:36:34.947Z,99680.41
2023-05-15T02:39:23.629Z,99681.84
2023-05-15T02:42:12.372Z,99685.34
2023-05-15T02:45:01.323Z,99694.19
2023-05-15T02:47:50.627Z,99692.38
2023-05-15T02:50:38.416Z,99691.38
2023-05-15T02:53:27.580Z,99684.59
2023-05-15T02:56:15.370Z,99678.25
2023-05-15T02:59:03.153Z,99682.63
2023-05-15T03:01:50.922Z,99679.56
2023-05-15T03:04:38.880Z,99677.44
2023-05-15T03:07:27.076Z,99680.34
2023-05-15T03:10:16.436Z,99698.66
2023-05-15T03:13:05.306Z,99688.66
2023-05-15T03:15:53.356Z,99690.09
2023-05-15T03:18:41.571Z,99696.72
2023-05-15T03:21:29.360Z,99695.44
2023-05-15T03:24:17.062Z,99688.78
2023-05-15T03:27:06.452Z,99707.75
2023-05-15T03:29:54.160Z,99704.25
2023-05-15T03:32:42.009Z,99702.00
2023-05-15T03:35:29.788Z,99691.41
2023-05-15T03:38:17.494Z,99709.34
2023-05-15T03:41:05.247Z,99707.53
2023-05-15T03:43:54.355Z,99708.31
2023-05-15T03:46:42.141Z,99703.69
2023-05-15T03:49:29.838Z,99700.38
2023-05-15T03:52:17.835Z,99686.66
2023-05-15T03:55:06.137Z,99682.19
2023-05-15T03:57:53.912Z,99686.31
2023-05-15T04:00:43.026Z,99693.88
2023-05-15T04:03:32.671Z,99684.97
2023-05-15T04:06:20.466Z,99692.38
2023-05-15T04:09:08.640Z,99701.22
2023-05-15T04:11:56.390Z,99719.25
2023-05-15T04:14:44.108Z,99696.16
2023-05-15T04:17:33.320Z,99698.69
2023-05-15T04:20:21.843Z,99693.06
2023-05-15T04:23:09.623Z,99684.59
2023-05-15T04:25:57.394Z,99684.63
2023-05-15T04:28:56.200Z,99687.88
2023-05-15T04:31:50.361Z,99690.41
2023-05-15T04:34:39.552Z,99702.91
2023-05-15T04:37:27.290Z,99691.09
2023-05-15T04:40:16.695Z,99684.19
2023-05-15T04:43:06.030Z,99691.38
2023-05-15T04:45:53.910Z,99684.06
2023-05-15T04:48:41.767Z,99688.59
2023-05-15T04:51:31.047Z,99694.78
2023-05-15T04:54:18.809Z,99679.75
2023-05-15T04:57:07.226Z,99678.75
2023-05-15T04:59:54.944Z,99696.75
2023-05-15T05:02:43.577Z,99708.31
2023-05-15T05:05:31.626Z,99715.19
2023-05-15T05:08:20.746Z,99714.91
2023-05-15T05:11:08.475Z,99720.38
2023-05-15T05:13:56.315Z,99734.19
2023-05-15T05:16:45.884Z,99726.63
2023-05-15T05:19:33.666Z,99734.91
2023-05-15T05:22:21.324Z,99720.56
2023-05-15T05:25:10.782Z,99715.34
2023-05-15T05:27:58.529Z,99716.06
2023-05-15T05:30:46.469Z,99712.97
2023-05-15T05:33:34.675Z,99729.28
2023-05-15T05:36:22.451Z,99734.22
2023-05-15T05:40:56.058Z,99715.03
2023-05-15T05:43:44.018Z,99714.09
2023-05-15T05:46:32.012Z,99709.41
2023-05-15T05:49:20.014Z,99696.47
2023-05-15T05:52:11.163Z,99703.03
2023-05-15T05:54:59.054Z,99701.25
2023-05-15T05:57:48.555Z,99695.66
2023-05-15T06:00:36.533Z,99697.38
2023-05-15T06:03:26.029Z,99632.19
2023-05-15T06:06:14.094Z,99711.94
2023-05-15T06:09:02.363Z,99702.41
2023-05-15T06:11:50.379Z,99713.16
2023-05-15T06:14:39.658Z,99711.59
2023-05-15T06:17:27.678Z,99708.75
2023-05-15T06:20:16.644Z,99693.13
2023-05-15T06:23:04.565Z,99700.88
2023-05-15T06:25:52.507Z,99716.88
2023-05-15T06:28:40.520Z,99723.88
2023-05-15T06:31:30.001Z,99731.69
2023-05-15T06:34:18.032Z,99736.03
2023-05-15T06:37:06.337Z,99713.25
2023-05-15T06:39:54.258Z,99723.88
2023-05-15T06:42:42.224Z,99724.16
2023-05-15T06:45:30.174Z,99729.44
2023-05-15T06:48:19.602Z,99716.53
2023-05-15T06:51:07.694Z,99733.47
2023-05-15T06:53:55.629Z,99721.19
2023-05-15T06:56:43.696Z,99702.47
2023-05-15T06:59:34.526Z,99701.28
2023-05-15T07:02:22.552Z,99683.66
2023-05-15T07:05:12.593Z,99713.50
2023-05-15T07:08:01.780Z,99699.63
2023-05-15T07:10:50.464Z,99702.28
2023-05-15T07:13:38.409Z,99688.84
2023-05-15T07:16:26.414Z,99709.09
2023-05-15T07:19:14.595Z,99703.03
2023-05-15T07:22:03.876Z,99700.19
2023-05-15T07:24:51.852Z,99699.78
2023-05-15T07:27:39.762Z,99701.44
2023-05-15T07:30:27.908Z,99698.22
2023-05-15T07:33:16.051Z,99683.00
2023-05-15T07:36:04.065Z,99682.72
2023-05-15T07:38:53.423Z,99685.72
2023-05-15T07:41:41.335Z,99673.16
2023-05-15T07:44:29.332Z,99696.66
2023-05-15T07:47:17.223Z,99683.44
2023-05-15T07:50:05.762Z,99631.31
2023-05-15T07:52:53.841Z,99666.53
2023-05-15T07:55:44.444Z,99686.34
2023-05-15T07:58:35.518Z,99653.75
2023-05-15T08:01:23.434Z,99684.66
2023-05-15T08:04:11.586Z,99690.44
2023-05-15T08:06:59.640Z,99685.13
2023-05-15T08:09:47.589Z,99694.25
2023-05-15T08:12:36.949Z,99682.63
2023-05-15T08:15:25.284Z,99690.78
2023-05-15T08:18:13.398Z,99683.72
2023-05-15T08:21:02.472Z,99680.94
2023-05-15T08:23:53.427Z,99675.38
2023-05-15T08:26:41.404Z,99667.63
2023-05-15T08:29:30.837Z,99668.00
2023-05-15T08:32:18.891Z,99676.53
2023-05-15T08:35:07.987Z,99667.38
2023-05-15T08:37:55.912Z,99682.41
2023-05-15T08:40:48.566Z,99671.09
2023-05-15T08:43:39.216Z,99682.50
2023-05-15T08:46:29.668Z,99682.69
2023-05-15T08:49:25.551Z,99681.47
2023-05-15T08:52:13.864Z,99652.63
2023-05-15T08:55:02.684Z,99677.66
2023-05-15T08:57:51.482Z,99681.91
2023-05-15T09:00:39.698Z,99672.94
2023-05-15T09:03:29.127Z,99675.28
2023-05-15T09:06:17.592Z,99666.88
2023-05-15T09:09:06.456Z,99646.75
2023-05-15T09:11:55.211Z,99657.03
2023-05-15T09:14:43.615Z,99660.34
2023-05-15T09:17:32.086Z,99646.34
2023-05-15T09:20:29.204Z,99636.25
2023-05-15T09:23:26.119Z,99627.00
2023-05-15T09:26:14.294Z,99635.59
2023-05-15T09:29:03.833Z,99644.34
2023-05-15T09:31:52.091Z,99644.91
2023-05-15T09:34:41.556Z,99633.66
2023-05-15T09:37:32.683Z,99601.16
2023-05-15T09:40:20.909Z,99615.81
2023-05-15T09:43:11.458Z,99618.19
2023-05-15T09:45:59.483Z,99636.94
2023-05-15T09:48:47.950Z,99632.44
2023-05-15T09:51:36.010Z,99636.31
2023-05-15T09:54:27.553Z,99609.25
2023-05-15T09:57:16.067Z,99579.28
2023-05-15T10:00:11.817Z,99532.88
2023-05-15T10:03:00.100Z,99607.72
2023-05-15T10:05:48.510Z,99545.53
2023-05-15T10:08:37.400Z,99563.41
2023-05-15T10:11:27.661Z,99583.09
2023-05-15T10:14:16.575Z,99595.81
2023-05-15T10:17:04.768Z,99580.91
2023-05-15T10:19:58.096Z,99593.53
2023-05-15T10:22:49.144Z,99575.41
2023-05-15T10:25:42.631Z,99574.56
2023-05-15T10:28:33.175Z,99573.69
2023-05-15T10:31:21.999Z,99558.91
2023-05-15T10:34:11.227Z,99550.75
2023-05-15T10:37:00.422Z,99554.91
2023-05-15T10:39:49.151Z,99535.38
2023-05-15T10:42:38.393Z,99545.28
2023-05-15T10:45:28.203Z,99539.78
2023-05-15T10:48:17.156Z,99559.78
2023-05-15T10:51:05.205Z,99564.94
2023-05-15T10:53:53.524Z,99549.94
2023-05-15T10:56:43.521Z,99548.63
2023-05-15T10:59:35.964Z,99548.00
2023-05-15T11:02:29.495Z,99540.78
2023-05-15T11:05:17.599Z,99546.50
2023-05-15T11:08:26.092Z,99546.53
2023-05-15T11:11:47.461Z,99553.03
2023-05-15T11:14:37.880Z,99549.50
2023-05-15T11:17:27.882Z,99561.06
2023-05-15T11:20:15.973Z,99565.88
2023-05-15T11:23:03.946Z,99551.81
2023-05-15T11:25:55.149Z,99557.03
2023-05-15T11:28:47.452Z,99559.66
2023-05-15T11:31:38.231Z,99552.56
2023-05-15T11:34:34.380Z,99557.28
2023-05-15T11:37:25.426Z,99546.78
2023-05-15T11:40:21.345Z,99551.03
2023-05-15T11:43:18.219Z,99554.22
2023-05-15T11:46:08.662Z,99558.91
2023-05-15T11:48:58.395Z,99565.16
2023-05-15T11:51:51.608Z,99569.00
2023-05-15T11:54:39.843Z,99549.56
2023-05-15T11:57:28.200Z,99555.06
2023-05-15T12:00:17.137Z,99541.56
2023-05-15T12:03:05.321Z,99550.13
2023-05-15T12:05:59.665Z,99549.75
2023-05-15T12:08:53.763Z,99550.13
2023-05-15T12:11:41.900Z,99542.22
2023-05-15T12:14:29.971Z,99486.16
2023-05-15T12:17:19.632Z,99518.03
2023-05-15T12:20:11.078Z,99538.22
2023-05-15T12:22:59.328Z,99527.94
2023-05-15T12:25:50.811Z,99539.00
2023-05-15T12:28:39.709Z,99546.03
2023-05-15T12:31:27.861Z,99534.13
2023-05-15T12:34:16.157Z,99532.66
2023-05-15T12:37:04.416Z,99531.13
2023-05-15T12:39:54.909Z,99524.44
2023-05-15T12:42:45.224Z,99512.69
2023-05-15T12:45:35.503Z,99511.50
2023-05-15T12:48:24.176Z,99489.44
2023-05-15T12:51:12.584Z,99506.56
2023-05-15T12:54:00.638Z,99509.91
2023-05-15T12:56:49.754Z,99506.00
2023-05-15T12:59:40.129Z,99500.31
2023-05-15T13:02:29.262Z,99499.69
2023-05-15T13:05:17.422Z,99502.63
2023-05-15T13:08:07.496Z,99492.94
2023-05-15T13:10:59.017Z,99502.06
2023-05-15T13:13:48.460Z,99494.59
2023-05-15T13:16:38.065Z,99496.31
2023-05-15T13:19:26.144Z,99492.16
2023-05-15T13:22:14.115Z,99479.69
2023-05-15T13:25:02.135Z,99476.41
2023-05-15T13:27:50.143Z,99479.19
2023-05-15T13:30:41.771Z,99458.16
2023-05-15T13:33:32.060Z,99475.00
2023-05-15T13:36:20.097Z,99487.59
2023-05-15T13:39:08.132Z,99475.13
2023-05-15T13:41:56.091Z,99468.97
2023-05-15T13:44:44.072Z,99468.50
2023-05-15T13:47:32.021Z,99470.88
2023-05-15T13:50:21.437Z,99479.69
2023-05-15T13:53:09.463Z,99474.81
2023-05-15T13:55:57.550Z,99475.69
2023-05-15T13:58:45.640Z,99477.97
2023-05-15T14:01:33.684Z,99476.47
2023-05-15T14:04:21.684Z,99478.50
2023-05-15T14:07:11.278Z,99480.25
2023-05-15T14:09:59.373Z,99477.31
2023-05-15T14:12:47.315Z,99487.06
2023-05-15T14:15:35.264Z,99498.81
2023-05-15T14:18:23.205Z,99492.50
2023-05-15T14:21:11.172Z,99476.66
2023-05-15T14:24:00.480Z,99490.47
2023-05-15T14:26:48.536Z,99487.50
2023-05-15T14:29:36.837Z,99482.09
2023-05-15T14:32:25.118Z,99468.28
2023-05-15T14:35:13.067Z,99471.91
2023-05-15T14:38:00.979Z,99469.69
2023-05-15T14:40:50.416Z,99478.75
2023-05-15T14:43:38.404Z,99472.56
2023-05-15T14:46:26.397Z,99469.00
2023-05-15T14:49:14.482Z,99445.50
2023-05-15T14:52:02.589Z,99470.06
2023-05-15T14:55:05.002Z,99478.03
2023-05-15T14:57:59.313Z,99478.81
2023-05-15T15:00:48.369Z,99478.75
2023-05-15T15:03:36.397Z,99478.41
2023-05-15T15:06:24.414Z,99478.56
2023-05-15T15:09:12.360Z,99470.94
2023-05-15T15:12:00.473Z,99462.63
2023-05-15T15:14:49.929Z,99468.69
2023-05-15T15:20:27.358Z,99446.66
2023-05-15T15:23:15.708Z,99461.56
2023-05-15T15:26:03.694Z,99453.44
2023-05-15T15:28:51.785Z,99462.44
2023-05-15T15:31:41.113Z,99457.34
2023-05-15T15:34:29.028Z,99452.25
2023-05-15T15:37:17.053Z,99448.41
2023-05-15T15:40:07.208Z,99456.69
2023-05-15T15:42:55.133Z,99446.91
2023-05-15T15:45:43.105Z,99458.78
2023-05-15T15:48:32.687Z,99447.91
2023-05-15T15:51:21.041Z,99448.94
2023-05-15T15:54:08.972Z,99450.31
2023-05-15T15:56:56.945Z,99445.06
2023-05-15T15:59:45.120Z,99441.63
2023-05-15T16:02:33.124Z,99472.09
2023-05-15T16:05:22.659Z,99462.81
2023-05-15T16:08:10.640Z,99452.38
2023-05-15T16:10:58.659Z,99460.84
2023-05-15T16:13:46.692Z,99467.09
2023-05-15T16:16:34.631Z,99401.06
2023-05-15T16:19:23.091Z,99461.84
2023-05-15T16:22:12.417Z,99461.59
2023-05-15T16:25:00.381Z,99466.72
2023-05-15T16:27:48.344Z,99469.69
2023-05-15T16:30:48.009Z,99463.97
2023-05-15T16:33:37.294Z,99461.19
2023-05-15T16:36:25.300Z,99462.56
2023-05-15T16:39:14.607Z,99461.03
2023-05-15T16:42:03.215Z,99461.41
2023-05-15T16:44:51.203Z,99462.84
2023-05-15T16:47:41.291Z,99466.19
2023-05-15T16:50:30.441Z,99457.00
2023-05-15T16:53:18.809Z,99458.56
2023-05-15T16:56:08.670Z,99463.38
2023-05-15T16:58:56.617Z,99473.44
2023-05-15T17:01:44.677Z,99472.59
2023-05-15T17:04:35.175Z,99483.56
2023-05-15T17:07:23.176Z,99482.69
2023-05-15T17:10:12.653Z,99488.50
2023-05-15T17:13:01.992Z,99492.94
2023-05-15T17:15:51.266Z,99480.41
2023-05-15T17:18:39.995Z,99486.53
2023-05-15T17:21:28.104Z,99477.31
2023-05-15T17:24:16.347Z,99475.03
2023-05-15T17:27:04.348Z,99473.34
2023-05-15T17:29:53.779Z,99474.06
2023-05-15T17:32:44.574Z,99480.41
2023-05-15T17:35:33.223Z,99470.78
2023-05-15T17:38:21.475Z,99469.13
2023-05-15T17:41:09.556Z,99480.00
2023-05-15T17:43:57.751Z,99485.84
2023-05-15T17:46:47.122Z,99499.00
2023-05-15T17:49:35.285Z,99494.31
2023-05-15T17:52:23.257Z,99468.25
2023-05-15T17:55:11.263Z,99513.84
2023-05-15T17:57:59.234Z,99517.72
2023-05-15T18:00:47.274Z,99516.41
2023-05-15T18:03:36.599Z,99522.97
2023-05-15T18:06:24.750Z,99515.09
2023-05-15T18:09:12.698Z,99519.81
2023-05-15T18:12:00.754Z,99522.97
2023-05-15T18:14:48.893Z,99514.91
2023-05-15T18:17:37.009Z,99514.91
2023-05-15T18:20:26.606Z,99515.69
2023-05-15T18:23:14.615Z,99512.88
2023-05-15T18:26:02.574Z,99522.31
2023-05-15T18:28:50.844Z,99518.41
2023-05-15T18:31:38.967Z,99512.41
2023-05-15T18:34:27.017Z,99520.31
2023-05-15T18:37:16.336Z,99522.59
2023-05-15T18:40:05.444Z,99520.72
2023-05-15T18:42:55.307Z,99492.47
2023-05-15T18:45:43.336Z,99518.03
2023-05-15T18:48:31.897Z,99523.91
2023-05-15T18:51:20.245Z,99531.84
2023-05-15T18:54:09.636Z,99520.88
2023-05-15T18:56:57.766Z,99527.78
2023-05-15T18:59:45.776Z,99527.81
2023-05-15T19:02:33.966Z,99518.25
2023-05-15T19:05:22.470Z,99542.44
2023-05-15T19:08:10.557Z,99553.91
2023-05-15T19:11:01.636Z,99543.66
2023-05-15T19:13:49.890Z,99538.75
2023-05-15T19:16:37.962Z,99539.94
2023-05-15T19:19:26.322Z,99536.88
2023-05-15T19:22:14.677Z,99535.34
2023-05-15T19:25:02.686Z,99542.09
2023-05-15T19:27:52.205Z,99545.06
2023-05-15T19:30:40.405Z,99474.88
2023-05-15T19:33:28.353Z,99539.78
2023-05-15T19:36:19.371Z,99535.75
2023-05-15T19:39:07.610Z,99528.53
2023-05-15T19:41:57.624Z,99506.84
2023-05-15T19:44:47.004Z,99531.88
2023-05-15T19:47:35.414Z,99535.41
2023-05-15T19:50:23.842Z,99512.53
2023-05-15T19:53:12.339Z,99529.19
2023-05-15T19:56:00.433Z,99520.63
2023-05-15T19:58:48.571Z,99516.94
2023-05-15T20:01:37.989Z,99519.09
2023-05-15T20:04:26.091Z,99517.41
2023-05-15T20:07:14.105Z,99521.31
2023-05-15T20:10:02.393Z,99502.47
2023-05-15T20:12:50.407Z,99526.34
2023-05-15T20:15:40.145Z,99517.59
2023-05-15T20:18:32.163Z,99528.34
2023-05-15T20:21:21.832Z,99520.94
2023-05-15T20:24:10.386Z,99520.09
2023-05-15T20:26:58.554Z,99513.22
2023-05-15T20:29:46.562Z,99530.69
2023-05-15T20:32:34.973Z,99539.06
2023-05-15T20:35:25.175Z,99546.31
2023-05-15T20:38:13.900Z,99537.41
2023-05-15T20:41:02.158Z,99524.47
2023-05-15T20:43:50.091Z,99527.47
2023-05-15T20:46:39.967Z,99526.94
2023-05-15T20:49:27.937Z,99524.31
2023-05-15T20:52:17.315Z,99521.09
2023-05-15T20:55:05.861Z,99508.00
2023-05-15T20:57:53.875Z,99505.66
2023-05-15T21:00:41.763Z,99511.03
2023-05-15T21:03:30.329Z,99512.53
2023-05-15T21:06:18.372Z,99511.19
2023-05-15T21:09:08.516Z,99514.06
2023-05-15T21:11:56.621Z,99516.09
2023-05-15T21:14:44.598Z,99509.69
2023-05-15T21:17:32.654Z,99503.63
2023-05-15T21:20:20.761Z,99510.19
2023-05-15T21:23:08.809Z,99502.09
2023-05-15T21:25:58.196Z,99506.47
2023-05-15T21:28:46.249Z,99483.28
2023-05-15T21:31:34.252Z,99495.06
2023-05-15T21:34:22.569Z,99499.63
2023-05-15T21:37:10.535Z,99505.81
2023-05-15T21:39:58.529Z,99439.28
2023-05-15T21:42:47.790Z,99501.75
2023-05-15T21:45:35.793Z,99499.09
2023-05-15T21:48:23.778Z,99501.75
2023-05-15T21:51:11.814Z,99507.97
2023-05-15T21:53:59.817Z,99506.31
2023-05-15T21:56:47.728Z,99505.78
2023-05-15T21:59:37.085Z,99515.66
2023-05-15T22:02:25.013Z,99512.47
2023-05-15T22:05:13.086Z,99526.22
2023-05-15T22:08:01.237Z,99514.78
2023-05-15T22:10:49.433Z,99524.28
2023-05-15T22:13:37.517Z,99522.53
2023-05-15T22:16:26.941Z,99519.91
2023-05-15T22:19:29.047Z,99527.28
2023-05-15T22:22:21.102Z,99543.72
2023-05-15T22:25:10.080Z,99534.59
2023-05-15T22:27:58.000Z,99532.91
2023-05-15T22:30:45.986Z,99522.97
2023-05-15T22:33:35.383Z,99522.72
2023-05-15T22:36:23.342Z,99518.31
2023-05-15T22:39:11.449Z,99514.56
2023-05-15T22:41:59.382Z,99497.50
2023-05-15T22:44:47.689Z,99516.50
2023-05-15T22:47:35.747Z,99506.09
2023-05-15T22:50:25.377Z,99497.75
2023-05-15T22:53:13.675Z,99498.63
2023-05-15T22:56:01.598Z,99500.00
2023-05-15T22:58:49.716Z,99490.81
2023-05-15T23:01:37.797Z,99463.03
2023-05-15T23:04:26.126Z,99485.69
2023-05-15T23:07:17.309Z,99483.44
2023-05-15T23:10:05.872Z,99468.91
2023-05-15T23:12:53.903Z,99474.50
2023-05-15T23:15:44.174Z,99481.00
2023-05-15T23:18:32.254Z,99482.50
2023-05-15T23:21:20.265Z,99468.72
2023-05-15T23:24:09.719Z,99485.53
2023-05-15T23:26:57.750Z,99463.03
2023-05-15T23:29:46.222Z,99460.69
2023-05-15T23:32:34.288Z,99471.97
2023-05-15T23:35:22.372Z,99464.53
2023-05-15T23:38:10.327Z,99470.56
2023-05-15T23:40:59.773Z,99477.38
2023-05-15T23:43:49.687Z,99486.09
2023-05-15T23:46:38.799Z,99480.84
2023-05-15T23:49:26.900Z,99471.97
2023-05-15T23:52:14.937Z,99472.47
2023-05-15T23:55:02.909Z,99468.84
2023-05-15T23:57:52.286Z,99476.84
